Time,TemperatureF,DewpointF,PressureIn,WindDirection,WindDirectionDegrees,WindSpeedMPH,WindSpeedGustMPH,Humidity,HourlyPrecipIn,Conditions,Clouds,dailyrainin,SoftwareType,DateUTC
2013-01-22 00:04:00,22.0,17.0,-100.00,NNE,18,1.0,4.0,79,0.00,,,-99.99,,2013-01-22 05:04:00,
2013-01-22 00:12:00,22.0,17.0,-100.00,NNE,31,1.0,3.0,79,0.00,,,-99.99,,2013-01-22 05:12:00,
2013-01-22 00:23:00,22.0,17.0,-100.00,NNW,339,3.0,7.0,81,0.00,,,-99.99,,2013-01-22 05:23:00,
2013-01-22 00:32:00,22.0,17.0,-100.00,North,359,1.0,6.0,80,0.00,,,-99.99,,2013-01-22 05:32:00,
2013-01-22 00:42:00,22.0,17.0,-100.00,North,356,0.0,4.0,80,0.00,,,-99.99,,2013-01-22 05:42:00,
2013-01-22 00:52:00,22.0,17.0,-100.00,North,356,0.0,4.0,80,0.00,,,-99.99,,2013-01-22 05:52:00,
2013-01-22 01:02:00,22.0,17.0,-100.00,North,356,0.0,4.0,80,0.00,,,-99.99,,2013-01-22 06:02:00,
2013-01-22 01:12:00,23.0,17.0,-100.00,NNW,330,8.0,11.0,79,0.00,,,-99.99,,2013-01-22 06:12:00,
2013-01-22 01:22:00,22.0,17.0,-100.00,NNW,335,10.0,14.0,80,0.00,,,-99.99,,2013-01-22 06:22:00,
2013-01-22 01:33:00,22.0,16.0,-100.00,NNW,330,8.0,11.0,77,0.00,,,-99.99,,2013-01-22 06:33:00,
2013-01-22 01:43:00,22.0,16.0,-100.00,NNW,328,9.0,12.0,76,0.00,,,-99.99,,2013-01-22 06:43:00,
2013-01-22 01:52:00,22.0,16.0,-100.00,NNW,332,10.0,12.0,76,0.00,,,-99.99,,2013-01-22 06:52:00,
2013-01-22 02:02:00,22.0,15.0,-100.00,NNW,336,6.0,9.0,75,0.00,,,-99.99,,2013-01-22 07:02:00,
2013-01-22 02:12:00,22.0,15.0,-100.00,NNW,333,6.0,9.0,75,0.00,,,-99.99,,2013-01-22 07:12:00,
2013-01-22 02:22:00,22.0,15.0,-100.00,NNW,332,6.0,8.0,76,0.00,,,-99.99,,2013-01-22 07:22:00,
2013-01-22 02:32:00,22.0,16.0,-100.00,NNW,333,6.0,10.0,76,0.00,,,-99.99,,2013-01-22 07:32:00,
2013-01-22 02:42:00,22.0,16.0,-100.00,NNW,329,6.0,9.0,77,0.00,,,-99.99,,2013-01-22 07:42:00,
2013-01-22 02:52:00,22.0,16.0,-100.00,NNW,330,6.0,9.0,77,0.00,,,-99.99,,2013-01-22 07:52:00,
2013-01-22 03:02:00,22.0,15.0,-100.00,NNW,336,6.0,9.0,75,0.00,,,-99.99,,2013-01-22 08:02:00,
2013-01-22 03:12:00,22.0,15.0,-100.00,NNW,335,6.0,9.0,76,0.00,,,-99.99,,2013-01-22 08:12:00,
2013-01-22 03:22:00,22.0,15.0,-100.00,NNW,336,7.0,10.0,75,0.00,,,-99.99,,2013-01-22 08:22:00,
2013-01-22 03:32:00,22.0,16.0,-100.00,NNW,329,8.0,11.0,77,0.00,,,-99.99,,2013-01-22 08:32:00,
2013-01-22 03:42:00,22.0,15.0,-100.00,NNW,330,7.0,12.0,76,0.00,,,-99.99,,2013-01-22 08:42:00,
2013-01-22 03:52:00,22.0,17.0,-100.00,NW,319,9.0,12.0,79,0.00,,,-99.99,,2013-01-22 08:52:00,
2013-01-22 04:02:00,22.0,15.0,-100.00,NNW,329,9.0,13.0,76,0.00,,,-99.99,,2013-01-22 09:02:00,
2013-01-22 04:12:00,22.0,16.0,-100.00,NNW,329,7.0,11.0,79,0.00,,,-99.99,,2013-01-22 09:12:00,
2013-01-22 04:22:00,22.0,16.0,-100.00,NW,325,9.0,12.0,78,0.00,,,-99.99,,2013-01-22 09:22:00,
2013-01-22 04:32:00,22.0,16.0,-100.00,NW,320,9.0,12.0,79,0.00,,,-99.99,,2013-01-22 09:32:00,
2013-01-22 04:42:00,21.0,16.0,-100.00,NW,326,10.0,14.0,79,0.00,,,-99.99,,2013-01-22 09:42:00,
2013-01-22 04:52:00,21.0,16.0,-100.00,NW,315,10.0,14.0,79,0.00,,,-99.99,,2013-01-22 09:52:00,
2013-01-22 05:02:00,21.0,15.0,-100.00,NW,311,9.0,13.0,77,0.00,,,-99.99,,2013-01-22 10:02:00,
2013-01-22 05:12:00,20.0,14.0,-100.00,NW,308,9.0,13.0,75,0.00,,,-99.99,,2013-01-22 10:12:00,
2013-01-22 05:22:00,20.0,13.0,-100.00,WNW,302,6.0,11.0,74,0.00,,,-99.99,,2013-01-22 10:22:00,
2013-01-22 05:32:00,20.0,13.0,-100.00,NW,309,7.0,12.0,75,0.00,,,-99.99,,2013-01-22 10:32:00,
2013-01-22 05:42:00,20.0,13.0,-100.00,NW,313,9.0,12.0,74,0.00,,,-99.99,,2013-01-22 10:42:00,
2013-01-22 05:52:00,20.0,13.0,-100.00,NW,318,11.0,14.0,74,0.00,,,-99.99,,2013-01-22 10:52:00,
2013-01-22 06:02:00,20.0,13.0,-100.00,NW,319,9.0,15.0,73,0.00,,,-99.99,,2013-01-22 11:02:00,
2013-01-22 06:12:00,-999.0,-99.9,-100.00,NW,319,9.0,16.0,-999,-99.99,,,-99.99,,2013-01-22 11:12:00,
2013-01-22 06:23:00,19.0,12.0,-100.00,NNW,328,11.0,16.0,74,0.00,,,-99.99,,2013-01-22 11:23:00,
2013-01-22 06:33:00,19.0,11.0,-100.00,NNW,332,14.0,18.0,73,0.00,,,-99.99,,2013-01-22 11:33:00,
2013-01-22 06:43:00,18.0,11.0,-100.00,NNW,328,14.0,18.0,74,0.00,,,-99.99,,2013-01-22 11:43:00,
2013-01-22 06:53:00,18.0,12.0,-100.00,NW,326,14.0,18.0,76,0.00,,,-99.99,,2013-01-22 11:53:00,
2013-01-22 07:04:00,18.0,12.0,-100.00,NNW,329,14.0,18.0,78,0.00,,,-99.99,,2013-01-22 12:04:00,
2013-01-22 07:13:00,17.0,11.0,-100.00,NW,320,13.0,21.0,75,0.00,,,-99.99,,2013-01-22 12:13:00,
2013-01-22 07:23:00,17.0,11.0,-100.00,NW,316,11.0,16.0,77,0.00,,,-99.99,,2013-01-22 12:23:00,
2013-01-22 07:33:00,17.0,10.0,-100.00,NW,325,12.0,18.0,75,0.00,,,-99.99,,2013-01-22 12:33:00,
2013-01-22 07:43:00,17.0,10.0,-100.00,NW,319,11.0,15.0,74,0.00,,,-99.99,,2013-01-22 12:43:00,
2013-01-22 07:52:00,16.0,8.0,-100.00,NW,315,10.0,13.0,69,0.00,,,-99.99,,2013-01-22 12:52:00,
2013-01-22 08:04:00,16.0,9.0,-100.00,NW,316,10.0,14.0,72,0.00,,,-99.99,,2013-01-22 13:04:00,
2013-01-22 08:14:00,-999.0,-99.9,-100.00,NW,315,12.0,17.0,-999,-99.99,,,-99.99,,2013-01-22 13:14:00,
2013-01-22 08:23:00,17.0,9.0,-100.00,NW,319,13.0,17.0,70,0.00,,,-99.99,,2013-01-22 13:23:00,
2013-01-22 08:33:00,17.0,9.0,-100.00,NW,315,12.0,16.0,71,-99.99,,,-99.99,,2013-01-22 13:33:00,
2013-01-22 08:43:00,17.0,9.0,-100.00,NW,318,13.0,17.0,71,0.00,,,-99.99,,2013-01-22 13:43:00,
2013-01-22 08:53:00,17.0,8.0,-100.00,NW,316,12.0,17.0,69,0.00,,,-99.99,,2013-01-22 13:53:00,
2013-01-22 09:03:00,17.0,9.0,-100.00,NW,313,12.0,16.0,69,0.00,,,-99.99,,2013-01-22 14:03:00,
2013-01-22 09:13:00,17.0,10.0,-100.00,NW,315,12.0,16.0,71,0.00,,,-99.99,,2013-01-22 14:13:00,
2013-01-22 09:23:00,18.0,10.0,-100.00,NW,316,10.0,14.0,70,0.00,,,-99.99,,2013-01-22 14:23:00,
2013-01-22 09:34:00,18.0,10.0,-100.00,NW,318,11.0,14.0,71,0.00,,,-99.99,,2013-01-22 14:34:00,
2013-01-22 09:44:00,18.0,9.0,-100.00,NW,316,9.0,13.0,68,0.00,,,-99.99,,2013-01-22 14:44:00,
2013-01-22 09:53:00,18.0,9.0,-100.00,NW,322,7.0,10.0,69,0.00,,,-99.99,,2013-01-22 14:53:00,
2013-01-22 10:04:00,18.0,9.0,-100.00,NW,315,7.0,11.0,66,0.00,,,-99.99,,2013-01-22 15:04:00,
2013-01-22 10:13:00,19.0,10.0,-100.00,NW,316,7.0,11.0,68,0.00,,,-99.99,,2013-01-22 15:13:00,
2013-01-22 10:23:00,20.0,10.0,-100.00,NW,306,7.0,14.0,65,0.00,,,-99.99,,2013-01-22 15:23:00,
2013-01-22 10:34:00,20.0,11.0,-100.00,NW,312,6.0,11.0,68,0.00,,,-99.99,,2013-01-22 15:34:00,
2013-01-22 10:43:00,20.0,13.0,-100.00,NW,323,6.0,9.0,70,0.00,,,-99.99,,2013-01-22 15:43:00,
2013-01-22 10:52:00,22.0,10.0,-100.00,NW,313,6.0,12.0,62,0.00,,,-99.99,,2013-01-22 15:52:00,
2013-01-22 11:03:00,22.0,10.0,-100.00,NW,309,5.0,11.0,59,0.00,,,-99.99,,2013-01-22 16:03:00,
2013-01-22 11:13:00,23.0,7.0,-100.00,NW,311,11.0,20.0,50,0.00,,,-99.99,,2013-01-22 16:13:00,
2013-01-22 11:23:00,23.0,7.0,-100.00,WNW,298,11.0,19.0,49,0.00,,,-99.99,,2013-01-22 16:23:00,
2013-01-22 11:33:00,23.0,8.0,-100.00,WNW,291,10.0,17.0,51,0.00,,,-99.99,,2013-01-22 16:33:00,
2013-01-22 11:43:00,23.0,3.0,-100.00,WNW,288,12.0,22.0,41,0.00,,,-99.99,,2013-01-22 16:43:00,
2013-01-22 11:53:00,23.0,2.0,-100.00,WNW,294,12.0,22.0,39,0.00,,,-99.99,,2013-01-22 16:53:00,
2013-01-22 12:03:00,23.0,3.0,-100.00,WNW,298,12.0,17.0,41,0.00,,,-99.99,,2013-01-22 17:03:00,
2013-01-22 12:13:00,24.0,2.0,-100.00,WNW,296,12.0,21.0,40,0.00,,,-99.99,,2013-01-22 17:13:00,
2013-01-22 12:23:00,23.0,2.0,-100.00,WNW,301,11.0,18.0,39,0.00,,,-99.99,,2013-01-22 17:23:00,
2013-01-22 12:34:00,23.0,2.0,-100.00,NW,308,12.0,20.0,39,0.00,,,-99.99,,2013-01-22 17:34:00,
2013-01-22 12:43:00,23.0,2.0,-100.00,NW,304,12.0,21.0,39,0.00,,,-99.99,,2013-01-22 17:43:00,
2013-01-22 12:53:00,23.0,2.0,-100.00,NW,308,14.0,22.0,38,0.00,,,-99.99,,2013-01-22 17:53:00,
2013-01-22 13:04:00,23.0,-1.0,-100.00,WNW,299,11.0,16.0,35,0.00,,,-99.99,,2013-01-22 18:04:00,
2013-01-22 13:13:00,24.0,4.0,-100.00,WNW,289,9.0,16.0,42,0.00,,,-99.99,,2013-01-22 18:13:00,
2013-01-22 13:23:00,24.0,-1.0,-100.00,WNW,285,9.0,20.0,34,0.00,,,-99.99,,2013-01-22 18:23:00,
2013-01-22 13:33:00,24.0,0.0,-100.00,NW,305,12.0,21.0,34,0.00,,,-99.99,,2013-01-22 18:33:00,
2013-01-22 13:43:00,24.0,0.0,-100.00,WNW,299,11.0,17.0,35,0.00,,,-99.99,,2013-01-22 18:43:00,
2013-01-22 13:53:00,24.0,2.0,-100.00,WNW,285,11.0,18.0,38,0.00,,,-99.99,,2013-01-22 18:53:00,
2013-01-22 14:03:00,24.0,4.0,-100.00,WNW,285,9.0,19.0,42,0.00,,,-99.99,,2013-01-22 19:03:00,
2013-01-22 14:13:00,24.0,1.0,-100.00,WNW,284,8.0,15.0,37,0.00,,,-99.99,,2013-01-22 19:13:00,
2013-01-22 14:23:00,24.0,-5.0,-100.00,WNW,294,11.0,19.0,28,0.00,,,-99.99,,2013-01-22 19:23:00,
2013-01-22 14:34:00,24.0,0.0,-100.00,WNW,287,9.0,16.0,35,0.00,,,-99.99,,2013-01-22 19:34:00,
2013-01-22 14:43:00,23.0,-2.0,-100.00,WNW,294,12.0,21.0,32,0.00,,,-99.99,,2013-01-22 19:43:00,
2013-01-22 14:53:00,23.0,-1.0,-100.00,WNW,298,12.0,20.0,35,0.00,,,-99.99,,2013-01-22 19:53:00,
2013-01-22 15:03:00,23.0,-2.0,-100.00,WNW,296,11.0,20.0,33,0.00,,,-99.99,,2013-01-22 20:03:00,
2013-01-22 15:13:00,23.0,-5.0,-100.00,WNW,296,12.0,21.0,28,0.00,,,-99.99,,2013-01-22 20:13:00,
2013-01-22 15:23:00,23.0,-6.0,-100.00,WNW,295,14.0,21.0,27,0.00,,,-99.99,,2013-01-22 20:23:00,
2013-01-22 15:33:00,23.0,-7.0,-100.00,WNW,301,14.0,24.0,26,0.00,,,-99.99,,2013-01-22 20:33:00,
2013-01-22 15:43:00,23.0,-3.0,-100.00,WNW,289,10.0,22.0,30,0.00,,,-99.99,,2013-01-22 20:43:00,
2013-01-22 15:53:00,23.0,-1.0,-100.00,WNW,282,9.0,17.0,33,0.00,,,-99.99,,2013-01-22 20:53:00,
2013-01-22 16:04:00,23.0,-4.0,-100.00,WNW,296,12.0,24.0,31,0.00,,,-99.99,,2013-01-22 21:04:00,
2013-01-22 16:13:00,22.0,-3.0,-100.00,WNW,288,10.0,17.0,32,0.00,,,-99.99,,2013-01-22 21:13:00,
2013-01-22 16:23:00,22.0,-5.0,-100.00,WNW,301,12.0,21.0,30,0.00,,,-99.99,,2013-01-22 21:23:00,
2013-01-22 16:34:00,22.0,-1.0,-100.00,WNW,291,9.0,17.0,37,0.00,,,-99.99,,2013-01-22 21:34:00,
2013-01-22 16:43:00,21.0,-5.0,-100.00,WNW,291,11.0,20.0,31,0.00,,,-99.99,,2013-01-22 21:43:00,
2013-01-22 16:53:00,21.0,-3.0,-100.00,WNW,299,11.0,17.0,33,0.00,,,-99.99,,2013-01-22 21:53:00,
2013-01-22 17:03:00,21.0,-2.0,-100.00,WNW,294,10.0,18.0,35,0.00,,,-99.99,,2013-01-22 22:03:00,
2013-01-22 17:13:00,21.0,-1.0,-100.00,WNW,292,10.0,17.0,38,0.00,,,-99.99,,2013-01-22 22:13:00,
2013-01-22 17:23:00,20.0,-1.0,-100.00,WNW,295,11.0,17.0,38,0.00,,,-99.99,,2013-01-22 22:23:00,
2013-01-22 17:32:00,20.0,2.0,-100.00,WNW,296,12.0,21.0,45,0.00,,,-99.99,,2013-01-22 22:32:00,
2013-01-22 17:43:00,20.0,4.0,-100.00,WNW,296,11.0,16.0,51,0.00,,,-99.99,,2013-01-22 22:43:00,
2013-01-22 17:53:00,-999.0,-99.9,-100.00,West,280,6.0,12.0,-999,-99.99,,,-99.99,,2013-01-22 22:53:00,
2013-01-22 18:03:00,20.0,7.0,-100.00,West,277,7.0,12.0,56,0.00,,,-99.99,,2013-01-22 23:03:00,
2013-01-22 18:12:00,20.0,7.0,-100.00,WNW,284,6.0,12.0,57,0.00,,,-99.99,,2013-01-22 23:12:00,
2013-01-22 18:24:00,19.0,8.0,-100.00,West,275,6.0,10.0,59,0.00,,,-99.99,,2013-01-22 23:24:00,
2013-01-22 18:33:00,19.0,8.0,-100.00,West,272,4.0,10.0,60,0.00,,,-99.99,,2013-01-22 23:33:00,
2013-01-22 18:43:00,19.0,6.0,-100.00,West,261,5.0,11.0,56,0.00,,,-99.99,,2013-01-22 23:43:00,
2013-01-22 18:52:00,18.0,5.0,-100.00,WSW,257,4.0,9.0,56,0.00,,,-99.99,,2013-01-22 23:52:00,
2013-01-22 19:03:00,18.0,7.0,-100.00,WSW,253,6.0,12.0,60,0.00,,,-99.99,,2013-01-23 00:03:00,
2013-01-22 19:12:00,18.0,8.0,-100.00,West,270,6.0,14.0,63,0.00,,,-99.99,,2013-01-23 00:12:00,
2013-01-22 19:23:00,18.0,8.0,-100.00,West,277,5.0,13.0,64,0.00,,,-99.99,,2013-01-23 00:23:00,
2013-01-22 19:33:00,18.0,8.0,-100.00,West,268,6.0,13.0,64,0.00,,,-99.99,,2013-01-23 00:33:00,
2013-01-22 19:43:00,17.0,11.0,-100.00,WNW,289,10.0,17.0,80,0.00,,,-99.99,,2013-01-23 00:43:00,
2013-01-22 19:52:00,16.0,10.0,-100.00,WNW,295,11.0,15.0,77,0.00,,,-99.99,,2013-01-23 00:52:00,
2013-01-22 20:03:00,17.0,9.0,-100.00,WNW,302,11.0,17.0,72,0.00,,,-99.99,,2013-01-23 01:03:00,
2013-01-22 20:13:00,-999.0,-99.9,-100.00,NW,311,11.0,15.0,-999,-99.99,,,-99.99,,2013-01-23 01:13:00,
2013-01-22 20:23:00,16.0,7.0,-100.00,NW,311,10.0,16.0,66,0.00,,,-99.99,,2013-01-23 01:23:00,
2013-01-22 20:33:00,16.0,7.0,-100.00,NW,309,9.0,13.0,67,0.00,,,-99.99,,2013-01-23 01:33:00,
2013-01-22 20:43:00,16.0,6.0,-100.00,WNW,298,8.0,14.0,64,0.00,,,-99.99,,2013-01-23 01:43:00,
2013-01-22 20:52:00,16.0,6.0,-100.00,WNW,295,7.0,12.0,64,0.00,,,-99.99,,2013-01-23 01:52:00,
2013-01-22 21:03:00,15.0,5.0,-100.00,WNW,296,9.0,14.0,62,0.00,,,-99.99,,2013-01-23 02:03:00,
2013-01-22 21:13:00,15.0,4.0,-100.00,WNW,295,9.0,12.0,61,0.00,,,-99.99,,2013-01-23 02:13:00,
2013-01-22 21:23:00,15.0,5.0,-100.00,WNW,295,8.0,12.0,62,0.00,,,-99.99,,2013-01-23 02:23:00,
2013-01-22 21:33:00,15.0,2.0,-100.00,WNW,291,8.0,14.0,55,0.00,,,-99.99,,2013-01-23 02:33:00,
2013-01-22 21:43:00,15.0,1.0,-100.00,WNW,295,9.0,14.0,55,0.00,,,-99.99,,2013-01-23 02:43:00,
2013-01-22 21:53:00,15.0,2.0,-100.00,WNW,296,8.0,12.0,57,0.00,,,-99.99,,2013-01-23 02:53:00,
2013-01-22 22:03:00,15.0,2.0,-100.00,WNW,295,7.0,13.0,58,0.00,,,-99.99,,2013-01-23 03:03:00,
2013-01-22 22:13:00,-999.0,-99.9,-100.00,WNW,291,7.0,12.0,-999,-99.99,,,-99.99,,2013-01-23 03:13:00,
2013-01-22 22:23:00,14.0,2.0,-100.00,WNW,291,7.0,12.0,58,0.00,,,-99.99,,2013-01-23 03:23:00,
2013-01-22 22:33:00,14.0,2.0,-100.00,WNW,291,8.0,13.0,57,0.00,,,-99.99,,2013-01-23 03:33:00,
2013-01-22 22:42:00,14.0,2.0,-100.00,WNW,296,7.0,12.0,58,0.00,,,-99.99,,2013-01-23 03:42:00,
2013-01-22 22:53:00,13.0,1.0,-100.00,WNW,298,7.0,11.0,56,0.00,,,-99.99,,2013-01-23 03:53:00,
2013-01-22 23:03:00,13.0,2.0,-100.00,WNW,298,7.0,11.0,59,0.00,,,-99.99,,2013-01-23 04:03:00,
2013-01-22 23:12:00,14.0,2.0,-100.00,WNW,295,6.0,11.0,61,0.00,,,-99.99,,2013-01-23 04:12:00,
2013-01-22 23:23:00,14.0,3.0,-100.00,WNW,294,7.0,12.0,61,0.00,,,-99.99,,2013-01-23 04:23:00,
2013-01-22 23:33:00,13.0,1.0,-100.00,WNW,292,8.0,12.0,59,0.00,,,-99.99,,2013-01-23 04:33:00,
2013-01-22 23:43:00,13.0,2.0,-100.00,WNW,301,7.0,12.0,61,0.00,,,-99.99,,2013-01-23 04:43:00,
2013-01-22 23:52:00,12.0,1.0,-100.00,WNW,292,7.0,12.0,61,0.00,,,-99.99,,2013-01-23 04:52:00,